METAR Data
IDs: Format: Raw Decoded Include TAF

Data at: 2142 UTC 18 Apr 2021

METAR for:KSAT (San Antonio Intl, TX, US)
Text:KSAT 182051Z 34008KT 10SM BKN120 BKN250 21/02 A3008 RMK AO2 SLP173 T02110017 56027
Temperature: 21.1°C ( 70°F)
Dewpoint: 1.7°C ( 35°F) [RH = 28%]
Pressure (altimeter):30.08 inches Hg (1018.7 mb) [Sea level pressure: 1017.3 mb]
Winds:from the NNW (340 degrees) at 9 MPH (8 knots; 4.1 m/s)
Visibility:10 or more sm (16+ km)
Ceiling:12000 feet AGL
Clouds: broken clouds at 12000 feet AGL, broken clouds at 25000 feet AGL